sensor_id;sensor_type;location;lat;lon;timestamp;P1;durP1;ratioP1;P2;durP2;ratioP2
15706;SDS011;7953;54.302;10.128;2024-01-30T00:00:21;24.20;;;15.73;;
15706;SDS011;7953;54.302;10.128;2024-01-30T00:02:48;27.83;;;15.63;;
15706;SDS011;7953;54.302;10.128;2024-01-30T00:05:15;24.60;;;16.17;;
15706;SDS011;7953;54.302;10.128;2024-01-30T00:07:42;25.33;;;16.07;;
15706;SDS011;7953;54.302;10.128;2024-01-30T00:10:09;23.33;;;15.77;;
15706;SDS011;7953;54.302;10.128;2024-01-30T00:12:36;23.53;;;16.23;;
15706;SDS011;7953;54.302;10.128;2024-01-30T00:15:04;25.33;;;16.53;;
15706;SDS011;7953;54.302;10.128;2024-01-30T00:17:34;22.97;;;15.97;;
15706;SDS011;7953;54.302;10.128;2024-01-30T00:20:02;20.30;;;14.57;;
15706;SDS011;7953;54.302;10.128;2024-01-30T00:22:30;19.37;;;14.13;;
15706;SDS011;7953;54.302;10.128;2024-01-30T00:24:57;22.00;;;15.70;;
15706;SDS011;7953;54.302;10.128;2024-01-30T00:27:24;22.73;;;15.57;;
15706;SDS011;7953;54.302;10.128;2024-01-30T00:29:51;23.30;;;15.30;;
15706;SDS011;7953;54.302;10.128;2024-01-30T00:32:20;22.60;;;15.93;;
15706;SDS011;7953;54.302;10.128;2024-01-30T00:34:48;26.43;;;17.10;;
15706;SDS011;7953;54.302;10.128;2024-01-30T00:37:15;20.03;;;14.87;;
15706;SDS011;7953;54.302;10.128;2024-01-30T00:39:41;22.30;;;15.17;;
15706;SDS011;7953;54.302;10.128;2024-01-30T00:42:08;22.67;;;15.53;;
15706;SDS011;7953;54.302;10.128;2024-01-30T00:44:35;23.83;;;17.07;;
15706;SDS011;7953;54.302;10.128;2024-01-30T00:47:03;25.47;;;17.13;;
15706;SDS011;7953;54.302;10.128;2024-01-30T00:49:32;23.63;;;16.20;;
15706;SDS011;7953;54.302;10.128;2024-01-30T00:51:59;21.67;;;15.73;;
15706;SDS011;7953;54.302;10.128;2024-01-30T00:54:26;22.83;;;16.33;;
15706;SDS011;7953;54.302;10.128;2024-01-30T00:56:53;21.73;;;15.40;;
15706;SDS011;7953;54.302;10.128;2024-01-30T00:59:20;24.23;;;15.13;;
15706;SDS011;7953;54.302;10.128;2024-01-30T01:01:47;21.43;;;16.23;;
15706;SDS011;7953;54.302;10.128;2024-01-30T01:04:13;22.77;;;15.63;;
15706;SDS011;7953;54.302;10.128;2024-01-30T01:06:42;20.93;;;15.33;;
15706;SDS011;7953;54.302;10.128;2024-01-30T01:09:09;23.83;;;15.80;;
15706;SDS011;7953;54.302;10.128;2024-01-30T01:11:36;24.53;;;15.83;;
15706;SDS011;7953;54.302;10.128;2024-01-30T01:14:04;21.93;;;14.33;;
15706;SDS011;7953;54.302;10.128;2024-01-30T01:16:31;24.77;;;17.10;;
15706;SDS011;7953;54.302;10.128;2024-01-30T01:18:57;24.23;;;15.70;;
15706;SDS011;7953;54.302;10.128;2024-01-30T01:21:25;24.03;;;16.03;;
15706;SDS011;7953;54.302;10.128;2024-01-30T01:23:53;21.27;;;14.80;;
15706;SDS011;7953;54.302;10.128;2024-01-30T01:26:20;22.37;;;16.07;;
15706;SDS011;7953;54.302;10.128;2024-01-30T01:28:47;23.97;;;15.93;;
15706;SDS011;7953;54.302;10.128;2024-01-30T01:31:14;21.93;;;16.33;;
15706;SDS011;7953;54.302;10.128;2024-01-30T01:33:42;24.47;;;17.07;;
15706;SDS011;7953;54.302;10.128;2024-01-30T01:36:09;23.10;;;16.27;;
15706;SDS011;7953;54.302;10.128;2024-01-30T01:38:37;23.10;;;17.03;;
15706;SDS011;7953;54.302;10.128;2024-01-30T01:41:05;25.30;;;15.87;;
15706;SDS011;7953;54.302;10.128;2024-01-30T01:43:31;27.17;;;17.30;;
15706;SDS011;7953;54.302;10.128;2024-01-30T01:45:58;25.33;;;16.40;;
15706;SDS011;7953;54.302;10.128;2024-01-30T01:48:26;22.53;;;16.40;;
15706;SDS011;7953;54.302;10.128;2024-01-30T01:50:53;23.50;;;16.27;;
15706;SDS011;7953;54.302;10.128;2024-01-30T01:53:20;19.67;;;15.83;;
15706;SDS011;7953;54.302;10.128;2024-01-30T01:55:47;23.20;;;15.53;;
15706;SDS011;7953;54.302;10.128;2024-01-30T01:58:15;24.27;;;17.00;;
15706;SDS011;7953;54.302;10.128;2024-01-30T02:00:42;22.87;;;17.33;;
15706;SDS011;7953;54.302;10.128;2024-01-30T02:03:10;22.43;;;16.60;;
15706;SDS011;7953;54.302;10.128;2024-01-30T02:05:38;23.33;;;17.17;;
15706;SDS011;7953;54.302;10.128;2024-01-30T02:08:05;27.00;;;18.23;;
15706;SDS011;7953;54.302;10.128;2024-01-30T02:10:34;25.47;;;16.87;;
15706;SDS011;7953;54.302;10.128;2024-01-30T02:13:01;26.13;;;16.50;;
15706;SDS011;7953;54.302;10.128;2024-01-30T02:15:29;21.97;;;16.97;;
15706;SDS011;7953;54.302;10.128;2024-01-30T02:17:56;22.43;;;16.87;;
15706;SDS011;7953;54.302;10.128;2024-01-30T02:20:23;21.77;;;17.00;;
15706;SDS011;7953;54.302;10.128;2024-01-30T02:22:54;25.20;;;16.63;;
15706;SDS011;7953;54.302;10.128;2024-01-30T02:25:30;26.70;;;17.10;;
15706;SDS011;7953;54.302;10.128;2024-01-30T02:27:57;24.60;;;17.30;;
15706;SDS011;7953;54.302;10.128;2024-01-30T02:30:24;24.90;;;16.70;;
15706;SDS011;7953;54.302;10.128;2024-01-30T02:32:51;23.63;;;17.30;;
15706;SDS011;7953;54.302;10.128;2024-01-30T02:35:18;24.03;;;17.20;;
15706;SDS011;7953;54.302;10.128;2024-01-30T02:37:44;22.00;;;16.80;;
15706;SDS011;7953;54.302;10.128;2024-01-30T02:40:13;20.97;;;16.37;;
15706;SDS011;7953;54.302;10.128;2024-01-30T02:42:40;19.83;;;15.87;;
15706;SDS011;7953;54.302;10.128;2024-01-30T02:45:08;23.87;;;16.83;;
15706;SDS011;7953;54.302;10.128;2024-01-30T02:47:35;22.03;;;16.57;;
15706;SDS011;7953;54.302;10.128;2024-01-30T02:50:02;21.63;;;15.40;;
15706;SDS011;7953;54.302;10.128;2024-01-30T02:52:30;21.73;;;15.90;;
15706;SDS011;7953;54.302;10.128;2024-01-30T02:54:56;22.50;;;15.70;;
15706;SDS011;7953;54.302;10.128;2024-01-30T02:57:25;22.50;;;16.40;;
15706;SDS011;7953;54.302;10.128;2024-01-30T02:59:51;23.07;;;16.23;;
15706;SDS011;7953;54.302;10.128;2024-01-30T03:02:18;24.97;;;16.70;;
15706;SDS011;7953;54.302;10.128;2024-01-30T03:04:45;22.10;;;16.40;;
15706;SDS011;7953;54.302;10.128;2024-01-30T03:07:12;22.67;;;15.67;;
15706;SDS011;7953;54.302;10.128;2024-01-30T03:09:40;22.50;;;15.93;;
15706;SDS011;7953;54.302;10.128;2024-01-30T03:12:08;21.27;;;16.33;;
15706;SDS011;7953;54.302;10.128;2024-01-30T03:14:36;21.20;;;16.27;;
15706;SDS011;7953;54.302;10.128;2024-01-30T03:17:03;21.27;;;15.93;;
15706;SDS011;7953;54.302;10.128;2024-01-30T03:19:30;19.37;;;14.97;;
15706;SDS011;7953;54.302;10.128;2024-01-30T03:21:57;21.20;;;15.43;;
15706;SDS011;7953;54.302;10.128;2024-01-30T03:24:23;20.80;;;14.63;;
15706;SDS011;7953;54.302;10.128;2024-01-30T03:26:50;23.73;;;15.27;;
15706;SDS011;7953;54.302;10.128;2024-01-30T03:29:17;19.43;;;14.97;;
15706;SDS011;7953;54.302;10.128;2024-01-30T03:31:45;20.57;;;15.10;;
15706;SDS011;7953;54.302;10.128;2024-01-30T03:34:12;20.87;;;13.50;;
15706;SDS011;7953;54.302;10.128;2024-01-30T03:36:39;19.43;;;15.33;;
15706;SDS011;7953;54.302;10.128;2024-01-30T03:39:06;19.27;;;14.70;;
15706;SDS011;7953;54.302;10.128;2024-01-30T03:41:33;19.30;;;14.30;;
15706;SDS011;7953;54.302;10.128;2024-01-30T03:43:59;20.77;;;14.87;;
15706;SDS011;7953;54.302;10.128;2024-01-30T03:46:26;17.10;;;14.10;;
15706;SDS011;7953;54.302;10.128;2024-01-30T03:48:54;17.77;;;14.07;;
15706;SDS011;7953;54.302;10.128;2024-01-30T03:51:21;17.40;;;14.50;;
15706;SDS011;7953;54.302;10.128;2024-01-30T03:53:48;16.90;;;13.80;;
15706;SDS011;7953;54.302;10.128;2024-01-30T03:56:15;18.80;;;13.63;;
15706;SDS011;7953;54.302;10.128;2024-01-30T03:58:41;18.57;;;12.90;;
15706;SDS011;7953;54.302;10.128;2024-01-30T04:01:12;17.70;;;13.10;;
15706;SDS011;7953;54.302;10.128;2024-01-30T04:03:40;16.03;;;12.60;;
15706;SDS011;7953;54.302;10.128;2024-01-30T04:06:08;19.90;;;13.17;;
15706;SDS011;7953;54.302;10.128;2024-01-30T04:08:35;18.07;;;13.23;;
15706;SDS011;7953;54.302;10.128;2024-01-30T04:11:03;16.93;;;12.33;;
15706;SDS011;7953;54.302;10.128;2024-01-30T04:13:30;17.13;;;12.97;;
15706;SDS011;7953;54.302;10.128;2024-01-30T04:15:58;16.60;;;12.57;;
15706;SDS011;7953;54.302;10.128;2024-01-30T04:18:26;17.30;;;11.80;;
15706;SDS011;7953;54.302;10.128;2024-01-30T04:20:53;15.17;;;12.83;;
15706;SDS011;7953;54.302;10.128;2024-01-30T04:23:21;15.93;;;12.17;;
15706;SDS011;7953;54.302;10.128;2024-01-30T04:25:48;18.13;;;13.40;;
15706;SDS011;7953;54.302;10.128;2024-01-30T04:28:15;17.40;;;13.13;;
15706;SDS011;7953;54.302;10.128;2024-01-30T04:30:42;16.90;;;12.10;;
15706;SDS011;7953;54.302;10.128;2024-01-30T04:33:10;16.60;;;12.37;;
15706;SDS011;7953;54.302;10.128;2024-01-30T04:35:36;21.30;;;12.83;;
15706;SDS011;7953;54.302;10.128;2024-01-30T04:38:03;13.83;;;11.83;;
15706;SDS011;7953;54.302;10.128;2024-01-30T04:40:32;18.00;;;12.63;;
15706;SDS011;7953;54.302;10.128;2024-01-30T04:42:58;17.73;;;12.17;;
15706;SDS011;7953;54.302;10.128;2024-01-30T04:45:25;17.03;;;12.90;;
15706;SDS011;7953;54.302;10.128;2024-01-30T04:47:52;16.03;;;12.77;;
15706;SDS011;7953;54.302;10.128;2024-01-30T04:50:19;16.17;;;12.53;;
15706;SDS011;7953;54.302;10.128;2024-01-30T04:52:45;16.57;;;11.80;;
15706;SDS011;7953;54.302;10.128;2024-01-30T04:55:12;14.73;;;11.50;;
15706;SDS011;7953;54.302;10.128;2024-01-30T04:57:41;18.00;;;12.67;;
15706;SDS011;7953;54.302;10.128;2024-01-30T05:00:08;16.10;;;12.37;;
15706;SDS011;7953;54.302;10.128;2024-01-30T05:02:35;15.13;;;12.10;;
15706;SDS011;7953;54.302;10.128;2024-01-30T05:05:02;17.13;;;12.23;;
15706;SDS011;7953;54.302;10.128;2024-01-30T05:07:29;16.60;;;12.53;;
15706;SDS011;7953;54.302;10.128;2024-01-30T05:09:56;19.70;;;12.37;;
15706;SDS011;7953;54.302;10.128;2024-01-30T05:12:23;16.33;;;11.80;;
15706;SDS011;7953;54.302;10.128;2024-01-30T05:14:51;16.83;;;12.23;;
15706;SDS011;7953;54.302;10.128;2024-01-30T05:17:18;17.57;;;12.23;;
15706;SDS011;7953;54.302;10.128;2024-01-30T05:19:45;15.23;;;12.07;;
15706;SDS011;7953;54.302;10.128;2024-01-30T05:22:12;15.03;;;11.63;;
15706;SDS011;7953;54.302;10.128;2024-01-30T05:24:40;15.20;;;12.37;;
15706;SDS011;7953;54.302;10.128;2024-01-30T05:27:08;25.07;;;21.73;;
15706;SDS011;7953;54.302;10.128;2024-01-30T05:29:34;20.63;;;15.93;;
15706;SDS011;7953;54.302;10.128;2024-01-30T05:32:03;18.17;;;13.00;;
15706;SDS011;7953;54.302;10.128;2024-01-30T05:34:31;13.90;;;11.43;;
15706;SDS011;7953;54.302;10.128;2024-01-30T05:36:58;13.43;;;11.43;;
15706;SDS011;7953;54.302;10.128;2024-01-30T05:39:25;14.67;;;11.77;;
15706;SDS011;7953;54.302;10.128;2024-01-30T05:41:53;15.47;;;11.23;;
15706;SDS011;7953;54.302;10.128;2024-01-30T05:44:20;16.07;;;12.03;;
15706;SDS011;7953;54.302;10.128;2024-01-30T05:46:47;12.23;;;10.77;;
15706;SDS011;7953;54.302;10.128;2024-01-30T05:49:15;18.67;;;12.27;;
15706;SDS011;7953;54.302;10.128;2024-01-30T05:51:42;15.40;;;10.80;;
15706;SDS011;7953;54.302;10.128;2024-01-30T05:54:08;15.67;;;11.70;;
15706;SDS011;7953;54.302;10.128;2024-01-30T05:56:35;14.53;;;10.60;;
15706;SDS011;7953;54.302;10.128;2024-01-30T05:59:02;15.37;;;10.90;;
15706;SDS011;7953;54.302;10.128;2024-01-30T06:01:29;16.30;;;12.57;;
15706;SDS011;7953;54.302;10.128;2024-01-30T06:03:56;14.77;;;10.33;;
15706;SDS011;7953;54.302;10.128;2024-01-30T06:06:24;15.17;;;11.70;;
15706;SDS011;7953;54.302;10.128;2024-01-30T06:08:50;12.83;;;11.17;;
15706;SDS011;7953;54.302;10.128;2024-01-30T06:11:20;14.47;;;10.90;;
15706;SDS011;7953;54.302;10.128;2024-01-30T06:13:47;14.13;;;10.63;;
15706;SDS011;7953;54.302;10.128;2024-01-30T06:16:14;17.00;;;11.50;;
15706;SDS011;7953;54.302;10.128;2024-01-30T06:18:40;14.40;;;10.27;;
15706;SDS011;7953;54.302;10.128;2024-01-30T06:21:07;15.00;;;11.77;;
15706;SDS011;7953;54.302;10.128;2024-01-30T06:23:36;12.77;;;11.00;;
15706;SDS011;7953;54.302;10.128;2024-01-30T06:26:03;13.27;;;11.20;;
15706;SDS011;7953;54.302;10.128;2024-01-30T06:28:30;15.00;;;10.83;;
15706;SDS011;7953;54.302;10.128;2024-01-30T06:30:56;14.80;;;11.03;;
15706;SDS011;7953;54.302;10.128;2024-01-30T06:33:23;16.33;;;11.37;;
15706;SDS011;7953;54.302;10.128;2024-01-30T06:35:50;15.87;;;11.23;;
15706;SDS011;7953;54.302;10.128;2024-01-30T06:38:17;17.97;;;11.97;;
15706;SDS011;7953;54.302;10.128;2024-01-30T06:40:45;15.33;;;11.67;;
15706;SDS011;7953;54.302;10.128;2024-01-30T06:43:12;12.53;;;10.83;;
15706;SDS011;7953;54.302;10.128;2024-01-30T06:45:39;13.00;;;10.87;;
15706;SDS011;7953;54.302;10.128;2024-01-30T06:48:07;16.30;;;11.57;;
15706;SDS011;7953;54.302;10.128;2024-01-30T06:50:34;14.23;;;12.40;;
15706;SDS011;7953;54.302;10.128;2024-01-30T06:53:00;17.33;;;12.40;;
15706;SDS011;7953;54.302;10.128;2024-01-30T06:55:27;15.70;;;11.47;;
15706;SDS011;7953;54.302;10.128;2024-01-30T06:57:55;13.90;;;11.30;;
15706;SDS011;7953;54.302;10.128;2024-01-30T07:00:22;13.37;;;10.83;;
15706;SDS011;7953;54.302;10.128;2024-01-30T07:02:49;17.70;;;12.73;;
15706;SDS011;7953;54.302;10.128;2024-01-30T07:05:16;17.03;;;11.87;;
15706;SDS011;7953;54.302;10.128;2024-01-30T07:07:43;14.43;;;10.87;;
15706;SDS011;7953;54.302;10.128;2024-01-30T07:10:10;14.10;;;11.03;;
15706;SDS011;7953;54.302;10.128;2024-01-30T07:12:37;14.40;;;12.17;;
15706;SDS011;7953;54.302;10.128;2024-01-30T07:15:05;15.60;;;12.93;;
15706;SDS011;7953;54.302;10.128;2024-01-30T07:17:34;14.00;;;12.27;;
15706;SDS011;7953;54.302;10.128;2024-01-30T07:20:01;15.97;;;12.57;;
15706;SDS011;7953;54.302;10.128;2024-01-30T07:22:28;14.70;;;12.53;;
15706;SDS011;7953;54.302;10.128;2024-01-30T07:24:56;15.87;;;12.50;;
15706;SDS011;7953;54.302;10.128;2024-01-30T07:27:23;16.87;;;12.43;;
15706;SDS011;7953;54.302;10.128;2024-01-30T07:29:49;15.80;;;11.90;;
15706;SDS011;7953;54.302;10.128;2024-01-30T07:32:17;18.00;;;13.13;;
15706;SDS011;7953;54.302;10.128;2024-01-30T07:34:44;14.97;;;11.90;;
15706;SDS011;7953;54.302;10.128;2024-01-30T07:37:11;14.60;;;11.33;;
15706;SDS011;7953;54.302;10.128;2024-01-30T07:39:40;16.03;;;12.90;;
15706;SDS011;7953;54.302;10.128;2024-01-30T07:42:07;20.40;;;13.07;;
15706;SDS011;7953;54.302;10.128;2024-01-30T07:44:34;15.77;;;12.50;;
15706;SDS011;7953;54.302;10.128;2024-01-30T07:47:01;18.67;;;12.23;;
15706;SDS011;7953;54.302;10.128;2024-01-30T07:49:30;15.60;;;12.43;;
15706;SDS011;7953;54.302;10.128;2024-01-30T07:51:57;14.50;;;12.00;;
15706;SDS011;7953;54.302;10.128;2024-01-30T07:54:27;15.80;;;12.03;;
15706;SDS011;7953;54.302;10.128;2024-01-30T07:56:58;14.67;;;12.03;;
15706;SDS011;7953;54.302;10.128;2024-01-30T07:59:25;14.70;;;12.97;;
15706;SDS011;7953;54.302;10.128;2024-01-30T08:02:01;13.33;;;11.93;;
15706;SDS011;7953;54.302;10.128;2024-01-30T08:04:27;14.97;;;12.03;;
15706;SDS011;7953;54.302;10.128;2024-01-30T08:06:56;17.23;;;12.93;;
15706;SDS011;7953;54.302;10.128;2024-01-30T08:09:22;17.13;;;12.50;;
15706;SDS011;7953;54.302;10.128;2024-01-30T08:11:49;16.33;;;12.00;;
15706;SDS011;7953;54.302;10.128;2024-01-30T08:14:16;14.63;;;12.80;;
15706;SDS011;7953;54.302;10.128;2024-01-30T08:16:43;13.73;;;11.93;;
15706;SDS011;7953;54.302;10.128;2024-01-30T08:19:10;16.63;;;13.00;;
15706;SDS011;7953;54.302;10.128;2024-01-30T08:21:37;14.97;;;12.20;;
15706;SDS011;7953;54.302;10.128;2024-01-30T08:24:05;17.87;;;13.33;;
15706;SDS011;7953;54.302;10.128;2024-01-30T08:26:33;14.37;;;11.83;;
15706;SDS011;7953;54.302;10.128;2024-01-30T08:29:00;15.53;;;12.70;;
15706;SDS011;7953;54.302;10.128;2024-01-30T08:31:27;16.83;;;12.67;;
15706;SDS011;7953;54.302;10.128;2024-01-30T08:33:54;15.40;;;12.23;;
15706;SDS011;7953;54.302;10.128;2024-01-30T08:36:21;13.87;;;10.73;;
15706;SDS011;7953;54.302;10.128;2024-01-30T08:38:48;14.27;;;11.53;;
15706;SDS011;7953;54.302;10.128;2024-01-30T08:41:16;18.20;;;13.47;;
15706;SDS011;7953;54.302;10.128;2024-01-30T08:43:43;18.70;;;12.57;;
15706;SDS011;7953;54.302;10.128;2024-01-30T08:46:10;17.20;;;12.43;;
15706;SDS011;7953;54.302;10.128;2024-01-30T08:48:38;16.23;;;12.00;;
15706;SDS011;7953;54.302;10.128;2024-01-30T08:51:05;15.87;;;12.27;;
15706;SDS011;7953;54.302;10.128;2024-01-30T08:53:33;14.03;;;11.60;;
15706;SDS011;7953;54.302;10.128;2024-01-30T08:56:01;16.37;;;11.63;;
15706;SDS011;7953;54.302;10.128;2024-01-30T08:58:29;18.00;;;13.13;;
15706;SDS011;7953;54.302;10.128;2024-01-30T09:00:56;15.77;;;12.67;;
15706;SDS011;7953;54.302;10.128;2024-01-30T09:03:23;17.90;;;12.73;;
15706;SDS011;7953;54.302;10.128;2024-01-30T09:05:50;16.87;;;13.50;;
15706;SDS011;7953;54.302;10.128;2024-01-30T09:08:17;16.87;;;13.23;;
15706;SDS011;7953;54.302;10.128;2024-01-30T09:10:44;16.20;;;12.43;;
15706;SDS011;7953;54.302;10.128;2024-01-30T09:13:10;18.00;;;12.87;;
15706;SDS011;7953;54.302;10.128;2024-01-30T09:15:39;19.63;;;13.17;;
15706;SDS011;7953;54.302;10.128;2024-01-30T09:18:06;18.70;;;12.27;;
15706;SDS011;7953;54.302;10.128;2024-01-30T09:20:33;14.03;;;11.23;;
15706;SDS011;7953;54.302;10.128;2024-01-30T09:22:59;14.53;;;11.47;;
15706;SDS011;7953;54.302;10.128;2024-01-30T09:25:26;14.97;;;12.23;;
15706;SDS011;7953;54.302;10.128;2024-01-30T09:27:53;17.07;;;14.43;;
15706;SDS011;7953;54.302;10.128;2024-01-30T09:30:20;36.30;;;24.60;;
15706;SDS011;7953;54.302;10.128;2024-01-30T09:32:48;24.80;;;17.07;;
15706;SDS011;7953;54.302;10.128;2024-01-30T09:35:15;16.50;;;12.43;;
15706;SDS011;7953;54.302;10.128;2024-01-30T09:37:42;15.17;;;12.87;;
15706;SDS011;7953;54.302;10.128;2024-01-30T09:40:09;15.13;;;12.23;;
15706;SDS011;7953;54.302;10.128;2024-01-30T09:42:36;17.50;;;11.43;;
15706;SDS011;7953;54.302;10.128;2024-01-30T09:45:03;16.90;;;12.80;;
15706;SDS011;7953;54.302;10.128;2024-01-30T09:47:31;14.00;;;11.40;;
15706;SDS011;7953;54.302;10.128;2024-01-30T09:50:00;13.63;;;11.50;;
15706;SDS011;7953;54.302;10.128;2024-01-30T09:52:31;15.77;;;12.70;;
15706;SDS011;7953;54.302;10.128;2024-01-30T09:54:58;17.67;;;13.37;;
15706;SDS011;7953;54.302;10.128;2024-01-30T09:57:26;14.90;;;11.93;;
15706;SDS011;7953;54.302;10.128;2024-01-30T09:59:53;15.07;;;11.67;;
15706;SDS011;7953;54.302;10.128;2024-01-30T10:02:20;15.37;;;13.67;;
15706;SDS011;7953;54.302;10.128;2024-01-30T10:04:47;14.57;;;11.60;;
15706;SDS011;7953;54.302;10.128;2024-01-30T10:07:16;17.30;;;12.13;;
15706;SDS011;7953;54.302;10.128;2024-01-30T10:09:42;15.33;;;11.73;;
15706;SDS011;7953;54.302;10.128;2024-01-30T10:12:09;14.17;;;12.03;;
15706;SDS011;7953;54.302;10.128;2024-01-30T10:14:37;16.97;;;11.73;;
15706;SDS011;7953;54.302;10.128;2024-01-30T10:17:04;14.10;;;11.80;;
15706;SDS011;7953;54.302;10.128;2024-01-30T10:19:31;16.57;;;12.10;;
15706;SDS011;7953;54.302;10.128;2024-01-30T10:21:59;14.93;;;12.80;;
15706;SDS011;7953;54.302;10.128;2024-01-30T10:24:27;15.70;;;11.63;;
15706;SDS011;7953;54.302;10.128;2024-01-30T10:26:55;16.87;;;12.43;;
15706;SDS011;7953;54.302;10.128;2024-01-30T10:29:22;15.83;;;11.90;;
15706;SDS011;7953;54.302;10.128;2024-01-30T10:31:57;16.57;;;12.70;;
15706;SDS011;7953;54.302;10.128;2024-01-30T10:34:24;18.10;;;12.20;;
15706;SDS011;7953;54.302;10.128;2024-01-30T10:36:54;17.70;;;12.87;;
15706;SDS011;7953;54.302;10.128;2024-01-30T10:39:27;16.87;;;13.07;;
15706;SDS011;7953;54.302;10.128;2024-01-30T10:41:56;15.20;;;11.97;;
15706;SDS011;7953;54.302;10.128;2024-01-30T10:44:30;17.63;;;12.20;;
15706;SDS011;7953;54.302;10.128;2024-01-30T10:47:03;17.27;;;12.43;;
15706;SDS011;7953;54.302;10.128;2024-01-30T10:49:35;15.83;;;11.90;;
15706;SDS011;7953;54.302;10.128;2024-01-30T10:52:02;17.57;;;12.83;;
15706;SDS011;7953;54.302;10.128;2024-01-30T10:54:32;14.00;;;11.60;;
15706;SDS011;7953;54.302;10.128;2024-01-30T10:57:01;17.77;;;11.80;;
15706;SDS011;7953;54.302;10.128;2024-01-30T10:59:29;13.57;;;11.13;;
15706;SDS011;7953;54.302;10.128;2024-01-30T11:01:57;16.40;;;12.03;;
15706;SDS011;7953;54.302;10.128;2024-01-30T11:04:24;17.47;;;12.37;;
15706;SDS011;7953;54.302;10.128;2024-01-30T11:06:51;18.73;;;13.03;;
15706;SDS011;7953;54.302;10.128;2024-01-30T11:09:19;13.40;;;11.40;;
15706;SDS011;7953;54.302;10.128;2024-01-30T11:11:50;16.60;;;12.03;;
15706;SDS011;7953;54.302;10.128;2024-01-30T11:14:22;16.03;;;12.53;;
15706;SDS011;7953;54.302;10.128;2024-01-30T11:16:51;15.50;;;12.07;;
15706;SDS011;7953;54.302;10.128;2024-01-30T11:19:22;15.60;;;12.20;;
15706;SDS011;7953;54.302;10.128;2024-01-30T11:21:50;14.33;;;11.87;;
15706;SDS011;7953;54.302;10.128;2024-01-30T11:24:19;14.90;;;12.57;;
15706;SDS011;7953;54.302;10.128;2024-01-30T11:26:47;14.77;;;12.03;;
15706;SDS011;7953;54.302;10.128;2024-01-30T11:29:17;13.07;;;11.50;;
15706;SDS011;7953;54.302;10.128;2024-01-30T11:34:30;16.57;;;12.37;;
15706;SDS011;7953;54.302;10.128;2024-01-30T11:36:59;16.63;;;12.57;;
15706;SDS011;7953;54.302;10.128;2024-01-30T11:39:30;13.00;;;10.97;;
15706;SDS011;7953;54.302;10.128;2024-01-30T11:41:57;16.57;;;12.57;;
15706;SDS011;7953;54.302;10.128;2024-01-30T11:44:27;17.03;;;12.43;;
15706;SDS011;7953;54.302;10.128;2024-01-30T11:46:53;15.20;;;11.40;;
15706;SDS011;7953;54.302;10.128;2024-01-30T11:49:20;14.40;;;11.47;;
15706;SDS011;7953;54.302;10.128;2024-01-30T11:51:47;15.30;;;11.83;;
15706;SDS011;7953;54.302;10.128;2024-01-30T11:54:14;13.47;;;12.07;;
15706;SDS011;7953;54.302;10.128;2024-01-30T11:56:42;15.50;;;11.43;;
15706;SDS011;7953;54.302;10.128;2024-01-30T11:59:09;14.90;;;12.40;;
15706;SDS011;7953;54.302;10.128;2024-01-30T12:01:37;15.97;;;13.00;;
15706;SDS011;7953;54.302;10.128;2024-01-30T12:04:04;18.37;;;12.60;;
15706;SDS011;7953;54.302;10.128;2024-01-30T12:06:34;18.37;;;12.43;;
15706;SDS011;7953;54.302;10.128;2024-01-30T12:09:01;15.57;;;12.40;;
15706;SDS011;7953;54.302;10.128;2024-01-30T12:11:30;20.00;;;13.80;;
15706;SDS011;7953;54.302;10.128;2024-01-30T12:13:57;20.20;;;14.70;;
15706;SDS011;7953;54.302;10.128;2024-01-30T12:16:24;15.80;;;12.80;;
15706;SDS011;7953;54.302;10.128;2024-01-30T12:19:00;20.47;;;15.17;;
15706;SDS011;7953;54.302;10.128;2024-01-30T12:21:27;16.93;;;13.87;;
15706;SDS011;7953;54.302;10.128;2024-01-30T12:23:55;17.17;;;13.90;;
15706;SDS011;7953;54.302;10.128;2024-01-30T12:26:23;18.13;;;13.13;;
15706;SDS011;7953;54.302;10.128;2024-01-30T12:28:50;15.60;;;12.77;;
15706;SDS011;7953;54.302;10.128;2024-01-30T12:31:24;20.07;;;13.47;;
15706;SDS011;7953;54.302;10.128;2024-01-30T12:33:52;13.63;;;11.13;;
15706;SDS011;7953;54.302;10.128;2024-01-30T12:36:20;19.50;;;13.67;;
15706;SDS011;7953;54.302;10.128;2024-01-30T12:38:47;15.57;;;13.70;;
15706;SDS011;7953;54.302;10.128;2024-01-30T12:41:14;25.37;;;16.87;;
15706;SDS011;7953;54.302;10.128;2024-01-30T12:43:41;17.30;;;14.00;;
15706;SDS011;7953;54.302;10.128;2024-01-30T12:46:09;17.77;;;13.83;;
15706;SDS011;7953;54.302;10.128;2024-01-30T12:48:35;15.83;;;13.03;;
15706;SDS011;7953;54.302;10.128;2024-01-30T12:51:02;12.60;;;11.03;;
15706;SDS011;7953;54.302;10.128;2024-01-30T12:53:31;13.47;;;11.90;;
15706;SDS011;7953;54.302;10.128;2024-01-30T12:55:58;15.37;;;12.20;;
15706;SDS011;7953;54.302;10.128;2024-01-30T12:58:25;18.40;;;14.10;;
15706;SDS011;7953;54.302;10.128;2024-01-30T13:00:52;16.77;;;13.33;;
15706;SDS011;7953;54.302;10.128;2024-01-30T13:03:20;18.50;;;12.60;;
15706;SDS011;7953;54.302;10.128;2024-01-30T13:05:47;15.77;;;13.20;;
15706;SDS011;7953;54.302;10.128;2024-01-30T13:08:14;17.80;;;12.63;;
15706;SDS011;7953;54.302;10.128;2024-01-30T13:10:42;17.77;;;13.63;;
15706;SDS011;7953;54.302;10.128;2024-01-30T13:13:09;20.60;;;14.77;;
15706;SDS011;7953;54.302;10.128;2024-01-30T13:15:35;16.97;;;12.37;;
15706;SDS011;7953;54.302;10.128;2024-01-30T13:18:02;17.13;;;14.07;;
15706;SDS011;7953;54.302;10.128;2024-01-30T13:20:30;20.70;;;13.13;;
15706;SDS011;7953;54.302;10.128;2024-01-30T13:22:57;23.67;;;16.67;;
15706;SDS011;7953;54.302;10.128;2024-01-30T13:25:23;23.67;;;17.77;;
15706;SDS011;7953;54.302;10.128;2024-01-30T13:27:52;20.30;;;15.10;;
15706;SDS011;7953;54.302;10.128;2024-01-30T13:30:19;19.83;;;14.53;;
15706;SDS011;7953;54.302;10.128;2024-01-30T13:32:46;21.57;;;16.27;;
15706;SDS011;7953;54.302;10.128;2024-01-30T13:35:13;22.83;;;15.43;;
15706;SDS011;7953;54.302;10.128;2024-01-30T13:37:39;24.87;;;17.53;;
15706;SDS011;7953;54.302;10.128;2024-01-30T13:40:07;29.17;;;20.50;;
15706;SDS011;7953;54.302;10.128;2024-01-30T13:42:35;22.73;;;13.80;;
15706;SDS011;7953;54.302;10.128;2024-01-30T13:45:03;23.77;;;17.30;;
15706;SDS011;7953;54.302;10.128;2024-01-30T13:47:30;15.17;;;12.73;;
15706;SDS011;7953;54.302;10.128;2024-01-30T13:49:57;17.70;;;14.80;;
15706;SDS011;7953;54.302;10.128;2024-01-30T13:52:24;18.03;;;13.63;;
15706;SDS011;7953;54.302;10.128;2024-01-30T13:54:52;17.57;;;14.07;;
15706;SDS011;7953;54.302;10.128;2024-01-30T13:57:19;21.03;;;15.83;;
15706;SDS011;7953;54.302;10.128;2024-01-30T13:59:45;25.00;;;16.33;;
15706;SDS011;7953;54.302;10.128;2024-01-30T14:02:14;24.50;;;14.70;;
15706;SDS011;7953;54.302;10.128;2024-01-30T14:04:40;27.13;;;17.37;;
15706;SDS011;7953;54.302;10.128;2024-01-30T14:07:08;20.23;;;15.63;;
15706;SDS011;7953;54.302;10.128;2024-01-30T14:09:35;25.83;;;17.13;;
15706;SDS011;7953;54.302;10.128;2024-01-30T14:12:02;22.97;;;16.43;;
15706;SDS011;7953;54.302;10.128;2024-01-30T14:14:29;18.53;;;14.70;;
15706;SDS011;7953;54.302;10.128;2024-01-30T14:16:56;17.37;;;13.33;;
15706;SDS011;7953;54.302;10.128;2024-01-30T14:19:24;34.47;;;21.53;;
15706;SDS011;7953;54.302;10.128;2024-01-30T14:21:51;17.90;;;13.57;;
15706;SDS011;7953;54.302;10.128;2024-01-30T14:24:18;30.43;;;20.73;;